sensor_id;sensor_type;location;lat;lon;timestamp;P1;durP1;ratioP1;P2;durP2;ratioP2
68993;SDS011;56054;50.968;5.816;2024-01-30T00:02:22;10.30;;;5.43;;
68993;SDS011;56054;50.968;5.816;2024-01-30T00:05:29;9.57;;;5.27;;
68993;SDS011;56054;50.968;5.816;2024-01-30T00:08:36;14.80;;;5.57;;
68993;SDS011;56054;50.968;5.816;2024-01-30T00:11:43;8.10;;;5.20;;
68993;SDS011;56054;50.968;5.816;2024-01-30T00:14:50;8.80;;;5.00;;
68993;SDS011;56054;50.968;5.816;2024-01-30T00:17:57;9.30;;;4.97;;
68993;SDS011;56054;50.968;5.816;2024-01-30T00:21:04;9.13;;;5.17;;
68993;SDS011;56054;50.968;5.816;2024-01-30T00:24:11;11.93;;;5.37;;
68993;SDS011;56054;50.968;5.816;2024-01-30T00:27:18;7.13;;;4.87;;
68993;SDS011;56054;50.968;5.816;2024-01-30T00:30:25;10.27;;;5.17;;
68993;SDS011;56054;50.968;5.816;2024-01-30T00:33:32;9.43;;;4.50;;
68993;SDS011;56054;50.968;5.816;2024-01-30T00:36:39;15.63;;;4.60;;
68993;SDS011;56054;50.968;5.816;2024-01-30T00:39:46;9.27;;;4.90;;
68993;SDS011;56054;50.968;5.816;2024-01-30T00:42:53;11.27;;;4.80;;
68993;SDS011;56054;50.968;5.816;2024-01-30T00:46:01;7.57;;;4.93;;
68993;SDS011;56054;50.968;5.816;2024-01-30T00:49:08;8.67;;;4.53;;
68993;SDS011;56054;50.968;5.816;2024-01-30T00:52:15;12.23;;;5.13;;
68993;SDS011;56054;50.968;5.816;2024-01-30T00:55:22;9.60;;;4.90;;
68993;SDS011;56054;50.968;5.816;2024-01-30T00:58:29;10.43;;;5.17;;
68993;SDS011;56054;50.968;5.816;2024-01-30T01:01:36;7.27;;;4.20;;
68993;SDS011;56054;50.968;5.816;2024-01-30T01:04:43;7.63;;;4.60;;
68993;SDS011;56054;50.968;5.816;2024-01-30T01:07:50;7.93;;;4.20;;
68993;SDS011;56054;50.968;5.816;2024-01-30T01:10:57;12.10;;;4.73;;
68993;SDS011;56054;50.968;5.816;2024-01-30T01:14:04;8.43;;;4.80;;
68993;SDS011;56054;50.968;5.816;2024-01-30T01:17:11;10.30;;;4.33;;
68993;SDS011;56054;50.968;5.816;2024-01-30T01:20:18;9.40;;;4.40;;
68993;SDS011;56054;50.968;5.816;2024-01-30T01:23:25;7.63;;;4.30;;
68993;SDS011;56054;50.968;5.816;2024-01-30T01:26:32;7.83;;;4.40;;
68993;SDS011;56054;50.968;5.816;2024-01-30T01:29:39;10.47;;;4.33;;
68993;SDS011;56054;50.968;5.816;2024-01-30T01:32:49;9.97;;;4.07;;
68993;SDS011;56054;50.968;5.816;2024-01-30T01:35:56;6.17;;;4.13;;
68993;SDS011;56054;50.968;5.816;2024-01-30T01:39:03;9.20;;;4.23;;
68993;SDS011;56054;50.968;5.816;2024-01-30T01:42:10;9.40;;;4.47;;
68993;SDS011;56054;50.968;5.816;2024-01-30T01:45:17;7.77;;;4.33;;
68993;SDS011;56054;50.968;5.816;2024-01-30T01:48:25;11.90;;;3.90;;
68993;SDS011;56054;50.968;5.816;2024-01-30T01:51:34;9.10;;;4.17;;
68993;SDS011;56054;50.968;5.816;2024-01-30T01:54:43;7.10;;;3.93;;
68993;SDS011;56054;50.968;5.816;2024-01-30T01:57:49;7.13;;;4.60;;
68993;SDS011;56054;50.968;5.816;2024-01-30T02:00:56;10.77;;;4.67;;
68993;SDS011;56054;50.968;5.816;2024-01-30T02:04:06;7.90;;;3.87;;
68993;SDS011;56054;50.968;5.816;2024-01-30T02:07:13;7.33;;;3.87;;
68993;SDS011;56054;50.968;5.816;2024-01-30T02:10:27;8.50;;;4.00;;
68993;SDS011;56054;50.968;5.816;2024-01-30T02:13:34;8.90;;;3.90;;
68993;SDS011;56054;50.968;5.816;2024-01-30T02:16:41;6.63;;;3.67;;
68993;SDS011;56054;50.968;5.816;2024-01-30T02:19:48;5.30;;;3.30;;
68993;SDS011;56054;50.968;5.816;2024-01-30T02:22:55;8.00;;;3.80;;
68993;SDS011;56054;50.968;5.816;2024-01-30T02:26:11;6.20;;;3.77;;
68993;SDS011;56054;50.968;5.816;2024-01-30T02:29:18;6.57;;;3.37;;
68993;SDS011;56054;50.968;5.816;2024-01-30T02:32:25;7.30;;;3.73;;
68993;SDS011;56054;50.968;5.816;2024-01-30T02:35:32;7.40;;;3.77;;
68993;SDS011;56054;50.968;5.816;2024-01-30T02:38:39;10.23;;;3.40;;
68993;SDS011;56054;50.968;5.816;2024-01-30T02:41:46;8.23;;;2.93;;
68993;SDS011;56054;50.968;5.816;2024-01-30T02:44:53;6.30;;;3.37;;
68993;SDS011;56054;50.968;5.816;2024-01-30T02:48:00;5.33;;;3.60;;
68993;SDS011;56054;50.968;5.816;2024-01-30T02:51:07;6.87;;;3.70;;
68993;SDS011;56054;50.968;5.816;2024-01-30T02:54:14;4.93;;;3.10;;
68993;SDS011;56054;50.968;5.816;2024-01-30T02:57:21;4.83;;;2.93;;
68993;SDS011;56054;50.968;5.816;2024-01-30T03:00:28;5.07;;;3.07;;
68993;SDS011;56054;50.968;5.816;2024-01-30T03:03:35;5.40;;;3.10;;
68993;SDS011;56054;50.968;5.816;2024-01-30T03:06:45;6.67;;;3.03;;
68993;SDS011;56054;50.968;5.816;2024-01-30T03:09:52;7.37;;;2.83;;
68993;SDS011;56054;50.968;5.816;2024-01-30T03:12:59;10.70;;;3.20;;
68993;SDS011;56054;50.968;5.816;2024-01-30T03:16:08;7.63;;;4.03;;
68993;SDS011;56054;50.968;5.816;2024-01-30T03:19:14;6.83;;;3.50;;
68993;SDS011;56054;50.968;5.816;2024-01-30T03:22:21;4.20;;;2.70;;
68993;SDS011;56054;50.968;5.816;2024-01-30T03:25:28;5.47;;;3.23;;
68993;SDS011;56054;50.968;5.816;2024-01-30T03:28:35;5.23;;;3.00;;
68993;SDS011;56054;50.968;5.816;2024-01-30T03:31:42;7.33;;;3.00;;
68993;SDS011;56054;50.968;5.816;2024-01-30T03:34:49;7.50;;;3.20;;
68993;SDS011;56054;50.968;5.816;2024-01-30T03:37:56;8.63;;;2.77;;
68993;SDS011;56054;50.968;5.816;2024-01-30T03:41:07;4.53;;;2.90;;
68993;SDS011;56054;50.968;5.816;2024-01-30T03:44:14;6.13;;;3.17;;
68993;SDS011;56054;50.968;5.816;2024-01-30T03:47:21;7.57;;;2.90;;
68993;SDS011;56054;50.968;5.816;2024-01-30T03:50:28;7.93;;;2.80;;
68993;SDS011;56054;50.968;5.816;2024-01-30T03:53:35;6.20;;;3.10;;
68993;SDS011;56054;50.968;5.816;2024-01-30T03:56:42;5.23;;;2.90;;
68993;SDS011;56054;50.968;5.816;2024-01-30T03:59:49;7.47;;;2.90;;
68993;SDS011;56054;50.968;5.816;2024-01-30T04:02:56;4.03;;;2.67;;
68993;SDS011;56054;50.968;5.816;2024-01-30T04:06:03;6.37;;;3.00;;
68993;SDS011;56054;50.968;5.816;2024-01-30T04:09:10;6.60;;;3.13;;
68993;SDS011;56054;50.968;5.816;2024-01-30T04:12:18;4.93;;;2.97;;
68993;SDS011;56054;50.968;5.816;2024-01-30T04:15:25;8.50;;;2.87;;
68993;SDS011;56054;50.968;5.816;2024-01-30T04:18:32;4.83;;;3.03;;
68993;SDS011;56054;50.968;5.816;2024-01-30T04:21:39;4.60;;;2.63;;
68993;SDS011;56054;50.968;5.816;2024-01-30T04:24:46;4.97;;;2.83;;
68993;SDS011;56054;50.968;5.816;2024-01-30T04:27:53;7.23;;;3.07;;
68993;SDS011;56054;50.968;5.816;2024-01-30T04:31:00;3.37;;;2.47;;
68993;SDS011;56054;50.968;5.816;2024-01-30T04:34:07;7.60;;;2.83;;
68993;SDS011;56054;50.968;5.816;2024-01-30T04:37:14;6.40;;;2.90;;
68993;SDS011;56054;50.968;5.816;2024-01-30T04:40:21;4.17;;;2.60;;
68993;SDS011;56054;50.968;5.816;2024-01-30T04:43:28;6.23;;;3.07;;
68993;SDS011;56054;50.968;5.816;2024-01-30T04:46:35;5.97;;;2.60;;
68993;SDS011;56054;50.968;5.816;2024-01-30T04:49:42;5.77;;;2.70;;
68993;SDS011;56054;50.968;5.816;2024-01-30T04:52:49;7.77;;;3.20;;
68993;SDS011;56054;50.968;5.816;2024-01-30T04:55:56;7.20;;;3.37;;
68993;SDS011;56054;50.968;5.816;2024-01-30T04:59:03;6.83;;;2.63;;
68993;SDS011;56054;50.968;5.816;2024-01-30T05:02:10;7.13;;;2.77;;
68993;SDS011;56054;50.968;5.816;2024-01-30T05:05:17;5.03;;;2.67;;
68993;SDS011;56054;50.968;5.816;2024-01-30T05:08:24;7.00;;;2.97;;
68993;SDS011;56054;50.968;5.816;2024-01-30T05:11:36;7.63;;;3.20;;
68993;SDS011;56054;50.968;5.816;2024-01-30T05:14:43;9.87;;;3.40;;
68993;SDS011;56054;50.968;5.816;2024-01-30T05:17:50;7.43;;;2.80;;
68993;SDS011;56054;50.968;5.816;2024-01-30T05:20:57;7.13;;;2.63;;
68993;SDS011;56054;50.968;5.816;2024-01-30T05:24:04;5.60;;;2.67;;
68993;SDS011;56054;50.968;5.816;2024-01-30T05:27:11;6.37;;;3.10;;
68993;SDS011;56054;50.968;5.816;2024-01-30T05:30:25;7.40;;;3.40;;
68993;SDS011;56054;50.968;5.816;2024-01-30T05:33:32;4.43;;;2.40;;
68993;SDS011;56054;50.968;5.816;2024-01-30T05:36:39;6.43;;;3.07;;
68993;SDS011;56054;50.968;5.816;2024-01-30T05:39:46;9.97;;;3.00;;
68993;SDS011;56054;50.968;5.816;2024-01-30T05:42:53;6.37;;;3.10;;
68993;SDS011;56054;50.968;5.816;2024-01-30T05:46:00;7.67;;;2.93;;
68993;SDS011;56054;50.968;5.816;2024-01-30T05:49:07;5.63;;;3.27;;
68993;SDS011;56054;50.968;5.816;2024-01-30T05:52:14;5.73;;;3.00;;
68993;SDS011;56054;50.968;5.816;2024-01-30T05:55:21;7.10;;;3.40;;
68993;SDS011;56054;50.968;5.816;2024-01-30T05:58:28;4.93;;;3.00;;
68993;SDS011;56054;50.968;5.816;2024-01-30T06:01:35;10.17;;;3.23;;
68993;SDS011;56054;50.968;5.816;2024-01-30T06:04:42;6.53;;;2.90;;
68993;SDS011;56054;50.968;5.816;2024-01-30T06:07:49;5.83;;;2.90;;
68993;SDS011;56054;50.968;5.816;2024-01-30T06:10:56;4.37;;;3.00;;
68993;SDS011;56054;50.968;5.816;2024-01-30T06:14:03;5.33;;;3.00;;
68993;SDS011;56054;50.968;5.816;2024-01-30T06:17:10;4.90;;;3.17;;
68993;SDS011;56054;50.968;5.816;2024-01-30T06:20:17;6.40;;;3.10;;
68993;SDS011;56054;50.968;5.816;2024-01-30T06:23:24;7.33;;;3.37;;
68993;SDS011;56054;50.968;5.816;2024-01-30T06:26:31;6.50;;;3.33;;
68993;SDS011;56054;50.968;5.816;2024-01-30T06:29:38;8.50;;;3.10;;
68993;SDS011;56054;50.968;5.816;2024-01-30T06:32:46;5.63;;;2.90;;
68993;SDS011;56054;50.968;5.816;2024-01-30T06:35:53;4.33;;;3.07;;
68993;SDS011;56054;50.968;5.816;2024-01-30T06:39:02;6.07;;;3.40;;
68993;SDS011;56054;50.968;5.816;2024-01-30T06:42:09;5.10;;;2.90;;
68993;SDS011;56054;50.968;5.816;2024-01-30T06:45:16;6.27;;;2.90;;
68993;SDS011;56054;50.968;5.816;2024-01-30T06:48:23;5.60;;;2.60;;
68993;SDS011;56054;50.968;5.816;2024-01-30T06:51:31;9.77;;;3.87;;
68993;SDS011;56054;50.968;5.816;2024-01-30T06:54:37;5.83;;;3.40;;
68993;SDS011;56054;50.968;5.816;2024-01-30T06:57:44;8.33;;;3.40;;
68993;SDS011;56054;50.968;5.816;2024-01-30T07:00:51;9.00;;;3.23;;
68993;SDS011;56054;50.968;5.816;2024-01-30T07:04:05;7.60;;;3.33;;
68993;SDS011;56054;50.968;5.816;2024-01-30T07:07:12;8.37;;;3.23;;
68993;SDS011;56054;50.968;5.816;2024-01-30T07:10:19;7.67;;;3.27;;
68993;SDS011;56054;50.968;5.816;2024-01-30T07:13:27;8.23;;;3.50;;
68993;SDS011;56054;50.968;5.816;2024-01-30T07:16:34;7.40;;;3.23;;
68993;SDS011;56054;50.968;5.816;2024-01-30T07:19:41;7.00;;;3.37;;
68993;SDS011;56054;50.968;5.816;2024-01-30T07:22:48;12.07;;;3.73;;
68993;SDS011;56054;50.968;5.816;2024-01-30T07:25:55;6.90;;;3.17;;
68993;SDS011;56054;50.968;5.816;2024-01-30T07:29:02;6.17;;;3.63;;
68993;SDS011;56054;50.968;5.816;2024-01-30T07:32:09;12.57;;;4.73;;
68993;SDS011;56054;50.968;5.816;2024-01-30T07:35:16;8.07;;;3.97;;
68993;SDS011;56054;50.968;5.816;2024-01-30T07:38:23;7.77;;;3.53;;
68993;SDS011;56054;50.968;5.816;2024-01-30T07:41:30;6.50;;;3.67;;
68993;SDS011;56054;50.968;5.816;2024-01-30T07:44:37;9.90;;;3.47;;
68993;SDS011;56054;50.968;5.816;2024-01-30T07:47:44;8.97;;;3.77;;
68993;SDS011;56054;50.968;5.816;2024-01-30T07:50:51;8.90;;;3.53;;
68993;SDS011;56054;50.968;5.816;2024-01-30T07:53:58;7.60;;;3.83;;
68993;SDS011;56054;50.968;5.816;2024-01-30T07:57:14;10.63;;;4.00;;
68993;SDS011;56054;50.968;5.816;2024-01-30T08:00:21;12.57;;;3.77;;
68993;SDS011;56054;50.968;5.816;2024-01-30T08:03:28;7.57;;;3.70;;
68993;SDS011;56054;50.968;5.816;2024-01-30T08:06:35;9.20;;;3.93;;
68993;SDS011;56054;50.968;5.816;2024-01-30T08:09:49;6.50;;;3.97;;
68993;SDS011;56054;50.968;5.816;2024-01-30T08:12:56;9.30;;;4.07;;
68993;SDS011;56054;50.968;5.816;2024-01-30T08:16:03;9.33;;;4.17;;
68993;SDS011;56054;50.968;5.816;2024-01-30T08:19:10;10.27;;;4.30;;
68993;SDS011;56054;50.968;5.816;2024-01-30T08:22:17;10.50;;;4.50;;
68993;SDS011;56054;50.968;5.816;2024-01-30T08:25:24;8.40;;;4.40;;
68993;SDS011;56054;50.968;5.816;2024-01-30T08:28:31;10.00;;;4.00;;
68993;SDS011;56054;50.968;5.816;2024-01-30T08:31:38;10.07;;;4.33;;
68993;SDS011;56054;50.968;5.816;2024-01-30T08:34:45;10.83;;;3.97;;
68993;SDS011;56054;50.968;5.816;2024-01-30T08:37:52;11.13;;;4.50;;
68993;SDS011;56054;50.968;5.816;2024-01-30T08:40:59;8.27;;;4.33;;
68993;SDS011;56054;50.968;5.816;2024-01-30T08:44:06;9.63;;;4.90;;
68993;SDS011;56054;50.968;5.816;2024-01-30T08:47:13;9.60;;;4.60;;
68993;SDS011;56054;50.968;5.816;2024-01-30T08:50:20;11.20;;;4.57;;
68993;SDS011;56054;50.968;5.816;2024-01-30T08:53:27;13.30;;;4.07;;
68993;SDS011;56054;50.968;5.816;2024-01-30T08:56:34;8.67;;;4.40;;
68993;SDS011;56054;50.968;5.816;2024-01-30T08:59:41;10.87;;;4.27;;
68993;SDS011;56054;50.968;5.816;2024-01-30T09:02:48;8.47;;;4.13;;
68993;SDS011;56054;50.968;5.816;2024-01-30T09:05:55;10.23;;;4.40;;
68993;SDS011;56054;50.968;5.816;2024-01-30T09:09:02;10.07;;;5.27;;
68993;SDS011;56054;50.968;5.816;2024-01-30T09:12:09;11.63;;;4.23;;
68993;SDS011;56054;50.968;5.816;2024-01-30T09:15:17;10.17;;;4.67;;
68993;SDS011;56054;50.968;5.816;2024-01-30T09:18:24;10.23;;;4.27;;
68993;SDS011;56054;50.968;5.816;2024-01-30T09:21:31;11.37;;;4.27;;
68993;SDS011;56054;50.968;5.816;2024-01-30T09:24:39;12.73;;;4.27;;
68993;SDS011;56054;50.968;5.816;2024-01-30T09:27:46;12.77;;;5.17;;
68993;SDS011;56054;50.968;5.816;2024-01-30T09:30:53;9.77;;;4.90;;
68993;SDS011;56054;50.968;5.816;2024-01-30T09:34:00;12.10;;;4.83;;
68993;SDS011;56054;50.968;5.816;2024-01-30T09:37:07;7.60;;;4.20;;
68993;SDS011;56054;50.968;5.816;2024-01-30T09:40:14;9.67;;;4.47;;
68993;SDS011;56054;50.968;5.816;2024-01-30T09:43:22;8.43;;;4.30;;
68993;SDS011;56054;50.968;5.816;2024-01-30T09:46:29;8.47;;;4.13;;
68993;SDS011;56054;50.968;5.816;2024-01-30T09:49:40;8.70;;;4.70;;
68993;SDS011;56054;50.968;5.816;2024-01-30T09:52:49;10.93;;;4.13;;
68993;SDS011;56054;50.968;5.816;2024-01-30T09:55:57;9.10;;;4.60;;
68993;SDS011;56054;50.968;5.816;2024-01-30T09:59:04;13.40;;;5.03;;
68993;SDS011;56054;50.968;5.816;2024-01-30T10:02:11;14.27;;;4.63;;
68993;SDS011;56054;50.968;5.816;2024-01-30T10:05:19;9.83;;;3.90;;
68993;SDS011;56054;50.968;5.816;2024-01-30T10:08:26;5.80;;;3.90;;
68993;SDS011;56054;50.968;5.816;2024-01-30T10:11:32;11.23;;;4.33;;
68993;SDS011;56054;50.968;5.816;2024-01-30T10:14:40;11.63;;;4.77;;
68993;SDS011;56054;50.968;5.816;2024-01-30T10:17:46;10.93;;;4.47;;
68993;SDS011;56054;50.968;5.816;2024-01-30T10:20:54;7.33;;;4.37;;
68993;SDS011;56054;50.968;5.816;2024-01-30T10:24:00;7.93;;;4.47;;
68993;SDS011;56054;50.968;5.816;2024-01-30T10:27:07;8.97;;;4.23;;
68993;SDS011;56054;50.968;5.816;2024-01-30T10:30:14;8.40;;;4.67;;
68993;SDS011;56054;50.968;5.816;2024-01-30T10:33:21;9.37;;;4.63;;
68993;SDS011;56054;50.968;5.816;2024-01-30T10:36:29;7.13;;;4.47;;
68993;SDS011;56054;50.968;5.816;2024-01-30T10:39:37;10.10;;;4.80;;
68993;SDS011;56054;50.968;5.816;2024-01-30T10:42:45;10.70;;;3.40;;
68993;SDS011;56054;50.968;5.816;2024-01-30T10:45:52;12.40;;;4.27;;
68993;SDS011;56054;50.968;5.816;2024-01-30T10:49:00;13.37;;;4.93;;
68993;SDS011;56054;50.968;5.816;2024-01-30T10:52:08;15.63;;;4.60;;
68993;SDS011;56054;50.968;5.816;2024-01-30T10:55:16;14.53;;;5.07;;
68993;SDS011;56054;50.968;5.816;2024-01-30T10:58:24;8.77;;;4.60;;
68993;SDS011;56054;50.968;5.816;2024-01-30T11:01:32;14.67;;;5.90;;
68993;SDS011;56054;50.968;5.816;2024-01-30T11:04:41;15.13;;;5.47;;
68993;SDS011;56054;50.968;5.816;2024-01-30T11:07:48;9.80;;;4.87;;
68993;SDS011;56054;50.968;5.816;2024-01-30T11:10:56;14.50;;;4.73;;
68993;SDS011;56054;50.968;5.816;2024-01-30T11:14:03;10.67;;;5.03;;
68993;SDS011;56054;50.968;5.816;2024-01-30T11:17:10;12.33;;;4.43;;
68993;SDS011;56054;50.968;5.816;2024-01-30T11:20:27;13.93;;;5.60;;
68993;SDS011;56054;50.968;5.816;2024-01-30T11:23:38;15.40;;;5.23;;
68993;SDS011;56054;50.968;5.816;2024-01-30T11:26:44;12.13;;;4.97;;
68993;SDS011;56054;50.968;5.816;2024-01-30T11:29:51;12.53;;;4.80;;
68993;SDS011;56054;50.968;5.816;2024-01-30T11:36:09;11.83;;;4.93;;
68993;SDS011;56054;50.968;5.816;2024-01-30T11:39:19;11.03;;;5.20;;
68993;SDS011;56054;50.968;5.816;2024-01-30T11:42:26;10.17;;;5.30;;
68993;SDS011;56054;50.968;5.816;2024-01-30T11:45:34;12.70;;;5.17;;
68993;SDS011;56054;50.968;5.816;2024-01-30T11:48:41;16.17;;;6.50;;
68993;SDS011;56054;50.968;5.816;2024-01-30T11:51:48;11.67;;;5.50;;
68993;SDS011;56054;50.968;5.816;2024-01-30T11:54:55;10.77;;;4.77;;
68993;SDS011;56054;50.968;5.816;2024-01-30T11:58:03;12.43;;;5.43;;
68993;SDS011;56054;50.968;5.816;2024-01-30T12:01:10;15.10;;;5.70;;
68993;SDS011;56054;50.968;5.816;2024-01-30T12:04:18;16.80;;;5.50;;
68993;SDS011;56054;50.968;5.816;2024-01-30T12:07:24;12.00;;;6.00;;
68993;SDS011;56054;50.968;5.816;2024-01-30T12:10:31;11.30;;;5.50;;
68993;SDS011;56054;50.968;5.816;2024-01-30T12:13:38;17.10;;;5.97;;
68993;SDS011;56054;50.968;5.816;2024-01-30T12:16:48;11.97;;;5.37;;
68993;SDS011;56054;50.968;5.816;2024-01-30T12:20:02;12.13;;;6.40;;
68993;SDS011;56054;50.968;5.816;2024-01-30T12:23:16;11.90;;;5.70;;
68993;SDS011;56054;50.968;5.816;2024-01-30T12:26:24;14.17;;;5.47;;
68993;SDS011;56054;50.968;5.816;2024-01-30T12:29:33;12.37;;;6.23;;
68993;SDS011;56054;50.968;5.816;2024-01-30T12:32:41;10.07;;;5.67;;
68993;SDS011;56054;50.968;5.816;2024-01-30T12:35:57;12.53;;;6.00;;
68993;SDS011;56054;50.968;5.816;2024-01-30T12:39:03;12.83;;;5.80;;
68993;SDS011;56054;50.968;5.816;2024-01-30T12:42:10;12.53;;;5.93;;
68993;SDS011;56054;50.968;5.816;2024-01-30T12:45:18;14.90;;;5.87;;
68993;SDS011;56054;50.968;5.816;2024-01-30T12:48:26;9.97;;;5.67;;
68993;SDS011;56054;50.968;5.816;2024-01-30T12:51:34;9.23;;;6.00;;
68993;SDS011;56054;50.968;5.816;2024-01-30T12:54:40;10.37;;;5.67;;
68993;SDS011;56054;50.968;5.816;2024-01-30T12:57:47;16.20;;;5.80;;
68993;SDS011;56054;50.968;5.816;2024-01-30T13:00:54;13.17;;;4.80;;
68993;SDS011;56054;50.968;5.816;2024-01-30T13:04:01;13.73;;;6.57;;
68993;SDS011;56054;50.968;5.816;2024-01-30T13:07:08;11.60;;;5.07;;
68993;SDS011;56054;50.968;5.816;2024-01-30T13:10:16;20.20;;;6.93;;
68993;SDS011;56054;50.968;5.816;2024-01-30T13:13:23;16.10;;;6.13;;
68993;SDS011;56054;50.968;5.816;2024-01-30T13:16:29;15.37;;;5.47;;
68993;SDS011;56054;50.968;5.816;2024-01-30T13:19:37;10.77;;;5.60;;
68993;SDS011;56054;50.968;5.816;2024-01-30T13:22:44;9.30;;;5.03;;
68993;SDS011;56054;50.968;5.816;2024-01-30T13:25:51;10.50;;;5.10;;
68993;SDS011;56054;50.968;5.816;2024-01-30T13:28:58;9.80;;;5.50;;
68993;SDS011;56054;50.968;5.816;2024-01-30T13:32:05;13.40;;;4.93;;
68993;SDS011;56054;50.968;5.816;2024-01-30T13:35:12;10.47;;;5.60;;
68993;SDS011;56054;50.968;5.816;2024-01-30T13:38:19;13.70;;;5.40;;
68993;SDS011;56054;50.968;5.816;2024-01-30T13:41:26;14.57;;;4.83;;
68993;SDS011;56054;50.968;5.816;2024-01-30T13:44:33;10.60;;;5.10;;
68993;SDS011;56054;50.968;5.816;2024-01-30T13:47:42;11.93;;;4.83;;
68993;SDS011;56054;50.968;5.816;2024-01-30T13:50:49;11.47;;;4.40;;
68993;SDS011;56054;50.968;5.816;2024-01-30T13:53:56;11.30;;;3.40;;
68993;SDS011;56054;50.968;5.816;2024-01-30T13:57:03;9.23;;;2.70;;
68993;SDS011;56054;50.968;5.816;2024-01-30T14:00:10;9.30;;;2.77;;
68993;SDS011;56054;50.968;5.816;2024-01-30T14:03:17;9.97;;;2.43;;
68993;SDS011;56054;50.968;5.816;2024-01-30T14:06:24;9.20;;;2.23;;
68993;SDS011;56054;50.968;5.816;2024-01-30T14:09:31;3.67;;;1.67;;
68993;SDS011;56054;50.968;5.816;2024-01-30T14:12:38;5.80;;;1.70;;
68993;SDS011;56054;50.968;5.816;2024-01-30T14:15:45;8.50;;;1.50;;
68993;SDS011;56054;50.968;5.816;2024-01-30T14:18:52;4.03;;;1.40;;
68993;SDS011;56054;50.968;5.816;2024-01-30T14:21:59;3.20;;;1.20;;
68993;SDS011;56054;50.968;5.816;2024-01-30T14:25:06;6.43;;;1.63;;
68993;SDS011;56054;50.968;5.816;2024-01-30T14:28:14;13.00;;;5.43;;
68993;SDS011;56054;50.968;5.816;2024-01-30T14:31:21;3.53;;;1.60;;
68993;SDS011;56054;50.968;5.816;2024-01-30T14:34:28;4.03;;;1.20;;
68993;SDS011;56054;50.968;5.816;2024-01-30T14:37:35;2.10;;;1.00;;
68993;SDS011;56054;50.968;5.816;2024-01-30T14:40:42;9.03;;;2.03;;
68993;SDS011;56054;50.968;5.816;2024-01-30T14:43:49;3.13;;;1.57;;
68993;SDS011;56054;50.968;5.816;2024-01-30T14:46:56;2.00;;;1.00;;
68993;SDS011;56054;50.968;5.816;2024-01-30T14:50:03;2.43;;;0.70;;
68993;SDS011;56054;50.968;5.816;2024-01-30T14:53:11;3.10;;;0.80;;
68993;SDS011;56054;50.968;5.816;2024-01-30T14:56:18;2.70;;;1.30;;
68993;SDS011;56054;50.968;5.816;2024-01-30T14:59:25;2.77;;;1.23;;
68993;SDS011;56054;50.968;5.816;2024-01-30T15:02:32;3.17;;;1.10;;
68993;SDS011;56054;50.968;5.816;2024-01-30T15:05:39;1.73;;;0.90;;
68993;SDS011;56054;50.968;5.816;2024-01-30T15:08:46;1.87;;;0.90;;
68993;SDS011;56054;50.968;5.816;2024-01-30T15:11:53;2.47;;;1.03;;
68993;SDS011;56054;50.968;5.816;2024-01-30T15:15:00;2.87;;;1.13;;
68993;SDS011;56054;50.968;5.816;2024-01-30T15:18:07;2.40;;;0.70;;
68993;SDS011;56054;50.968;5.816;2024-01-30T15:21:15;2.80;;;0.70;;
68993;SDS011;56054;50.968;5.816;2024-01-30T15:24:22;1.90;;;0.60;;
68993;SDS011;56054;50.968;5.816;2024-01-30T15:27:29;3.47;;;0.90;;
68993;SDS011;56054;50.968;5.816;2024-01-30T15:30:36;2.73;;;0.60;;
68993;SDS011;56054;50.968;5.816;2024-01-30T15:33:43;0.60;;;0.43;;
68993;SDS011;56054;50.968;5.816;2024-01-30T15:36:50;2.20;;;0.53;;
68993;SDS011;56054;50.968;5.816;2024-01-30T15:39:57;2.87;;;0.43;;
68993;SDS011;56054;50.968;5.816;2024-01-30T15:43:04;4.97;;;0.93;;
68993;SDS011;56054;50.968;5.816;2024-01-30T15:46:11;5.60;;;2.10;;
68993;SDS011;56054;50.968;5.816;2024-01-30T15:49:18;1.83;;;0.90;;
68993;SDS011;56054;50.968;5.816;2024-01-30T15:52:25;4.90;;;0.90;;
68993;SDS011;56054;50.968;5.816;2024-01-30T15:55:32;3.00;;;0.70;;
68993;SDS011;56054;50.968;5.816;2024-01-30T15:58:39;4.00;;;1.03;;
68993;SDS011;56054;50.968;5.816;2024-01-30T16:01:46;3.83;;;1.47;;
68993;SDS011;56054;50.968;5.816;2024-01-30T16:04:53;7.93;;;0.70;;
68993;SDS011;56054;50.968;5.816;2024-01-30T16:08:00;3.77;;;0.80;;
68993;SDS011;56054;50.968;5.816;2024-01-30T16:11:07;3.77;;;0.77;;
68993;SDS011;56054;50.968;5.816;2024-01-30T16:14:15;6.30;;;1.20;;
68993;SDS011;56054;50.968;5.816;2024-01-30T16:17:22;4.13;;;1.00;;
68993;SDS011;56054;50.968;5.816;2024-01-30T16:20:29;5.33;;;1.60;;
68993;SDS011;56054;50.968;5.816;2024-01-30T16:23:36;10.73;;;7.17;;
68993;SDS011;56054;50.968;5.816;2024-01-30T16:26:43;3.00;;;1.07;;
68993;SDS011;56054;50.968;5.816;2024-01-30T16:29:50;3.30;;;1.97;;
68993;SDS011;56054;50.968;5.816;2024-01-30T16:32:57;2.60;;;1.00;;
68993;SDS011;56054;50.968;5.816;2024-01-30T16:36:04;3.67;;;1.50;;
68993;SDS011;56054;50.968;5.816;2024-01-30T16:39:11;1.23;;;0.60;;
68993;SDS011;56054;50.968;5.816;2024-01-30T16:42:18;3.17;;;0.97;;
68993;SDS011;56054;50.968;5.816;2024-01-30T16:45:25;5.90;;;1.20;;
68993;SDS011;56054;50.968;5.816;2024-01-30T16:48:32;2.47;;;0.90;;
68993;SDS011;56054;50.968;5.816;2024-01-30T16:51:39;3.10;;;1.30;;
68993;SDS011;56054;50.968;5.816;2024-01-30T16:54:46;3.07;;;0.90;;
68993;SDS011;56054;50.968;5.816;2024-01-30T16:57:53;4.73;;;1.03;;
68993;SDS011;56054;50.968;5.816;2024-01-30T17:01:00;3.40;;;1.00;;
68993;SDS011;56054;50.968;5.816;2024-01-30T17:04:07;7.83;;;1.23;;
68993;SDS011;56054;50.968;5.816;2024-01-30T17:07:14;4.57;;;0.87;;
68993;SDS011;56054;50.968;5.816;2024-01-30T17:10:21;4.43;;;1.40;;
68993;SDS011;56054;50.968;5.816;2024-01-30T17:13:28;2.83;;;0.90;;
68993;SDS011;56054;50.968;5.816;2024-01-30T17:16:35;3.43;;;1.20;;
68993;SDS011;56054;50.968;5.816;2024-01-30T17:19:42;9.53;;;1.30;;
68993;SDS011;56054;50.968;5.816;2024-01-30T17:22:49;5.33;;;1.20;;
68993;SDS011;56054;50.968;5.816;2024-01-30T17:25:56;7.63;;;1.40;;
68993;SDS011;56054;50.968;5.816;2024-01-30T17:29:03;7.50;;;1.47;;
68993;SDS011;56054;50.968;5.816;2024-01-30T17:32:10;6.63;;;1.27;;
68993;SDS011;56054;50.968;5.816;2024-01-30T17:35:17;3.27;;;1.20;;
68993;SDS011;56054;50.968;5.816;2024-01-30T17:38:24;5.47;;;1.03;;
68993;SDS011;56054;50.968;5.816;2024-01-30T17:41:31;4.70;;;1.10;;
68993;SDS011;56054;50.968;5.816;2024-01-30T17:44:38;5.40;;;1.50;;
68993;SDS011;56054;50.968;5.816;2024-01-30T17:47:45;4.93;;;1.20;;
68993;SDS011;56054;50.968;5.816;2024-01-30T17:50:52;5.53;;;1.30;;
68993;SDS011;56054;50.968;5.816;2024-01-30T17:53:59;6.70;;;1.20;;
68993;SDS011;56054;50.968;5.816;2024-01-30T17:57:06;4.13;;;0.93;;
68993;SDS011;56054;50.968;5.816;2024-01-30T18:00:13;4.00;;;1.30;;
68993;SDS011;56054;50.968;5.816;2024-01-30T18:03:20;4.30;;;2.20;;
68993;SDS011;56054;50.968;5.816;2024-01-30T18:06:27;2.17;;;1.17;;
68993;SDS011;56054;50.968;5.816;2024-01-30T18:09:34;1.77;;;0.90;;
68993;SDS011;56054;50.968;5.816;2024-01-30T18:12:41;4.10;;;1.40;;
68993;SDS011;56054;50.968;5.816;2024-01-30T18:15:48;1.93;;;0.73;;
68993;SDS011;56054;50.968;5.816;2024-01-30T18:18:55;4.57;;;0.90;;
68993;SDS011;56054;50.968;5.816;2024-01-30T18:22:02;5.83;;;0.90;;
68993;SDS011;56054;50.968;5.816;2024-01-30T18:25:09;1.80;;;1.00;;
68993;SDS011;56054;50.968;5.816;2024-01-30T18:28:16;2.13;;;0.97;;
68993;SDS011;56054;50.968;5.816;2024-01-30T18:31:23;2.87;;;1.20;;
68993;SDS011;56054;50.968;5.816;2024-01-30T18:34:38;2.80;;;1.30;;
68993;SDS011;56054;50.968;5.816;2024-01-30T18:37:45;3.23;;;1.10;;
68993;SDS011;56054;50.968;5.816;2024-01-30T18:40:52;5.73;;;1.83;;
68993;SDS011;56054;50.968;5.816;2024-01-30T18:43:59;4.67;;;1.37;;
68993;SDS011;56054;50.968;5.816;2024-01-30T18:47:06;2.63;;;1.30;;